sensor_id;sensor_type;location;lat;lon;timestamp;pressure;altitude;pressure_sealevel;temperature;humidity
81151;BME280;70629;-26.026;27.976;2023-08-07T00:00:13;87360.63;;;5.82;63.67
81151;BME280;70629;-26.026;27.976;2023-08-07T00:01:48;87364.84;;;5.85;63.34
81151;BME280;70629;-26.026;27.976;2023-08-07T00:03:23;87366.91;;;5.77;62.89
81151;BME280;70629;-26.026;27.976;2023-08-07T00:04:58;87367.13;;;5.71;64.91
81151;BME280;70629;-26.026;27.976;2023-08-07T00:06:33;87364.00;;;5.65;63.58
81151;BME280;70629;-26.026;27.976;2023-08-07T00:08:08;87370.09;;;5.33;65.75
81151;BME280;70629;-26.026;27.976;2023-08-07T00:09:43;87365.38;;;5.49;64.39
81151;BME280;70629;-26.026;27.976;2023-08-07T00:11:18;87364.41;;;5.79;63.32
81151;BME280;70629;-26.026;27.976;2023-08-07T00:12:52;87363.03;;;5.70;64.27
81151;BME280;70629;-26.026;27.976;2023-08-07T00:14:27;87363.50;;;5.59;64.76
81151;BME280;70629;-26.026;27.976;2023-08-07T00:16:02;87359.59;;;5.77;63.75
81151;BME280;70629;-26.026;27.976;2023-08-07T00:17:37;87355.78;;;5.88;63.70
81151;BME280;70629;-26.026;27.976;2023-08-07T00:19:12;87354.72;;;5.66;64.48
81151;BME280;70629;-26.026;27.976;2023-08-07T00:20:47;87356.13;;;5.67;64.51
81151;BME280;70629;-26.026;27.976;2023-08-07T00:22:21;87351.91;;;5.64;65.15
81151;BME280;70629;-26.026;27.976;2023-08-07T00:23:57;87348.81;;;5.92;64.15
81151;BME280;70629;-26.026;27.976;2023-08-07T00:25:32;87354.38;;;6.04;63.39
81151;BME280;70629;-26.026;27.976;2023-08-07T00:27:06;87362.72;;;5.66;63.93
81151;BME280;70629;-26.026;27.976;2023-08-07T00:28:44;87355.22;;;5.47;64.40
81151;BME280;70629;-26.026;27.976;2023-08-07T00:30:19;87358.19;;;5.76;63.28
81151;BME280;70629;-26.026;27.976;2023-08-07T00:31:54;87356.31;;;5.69;64.08
81151;BME280;70629;-26.026;27.976;2023-08-07T00:33:29;87359.34;;;5.23;64.76
81151;BME280;70629;-26.026;27.976;2023-08-07T00:35:04;87350.16;;;5.59;63.31
81151;BME280;70629;-26.026;27.976;2023-08-07T00:36:39;87352.66;;;5.57;63.81
81151;BME280;70629;-26.026;27.976;2023-08-07T00:38:13;87359.13;;;5.29;64.87
81151;BME280;70629;-26.026;27.976;2023-08-07T00:39:48;87357.22;;;4.97;65.49
81151;BME280;70629;-26.026;27.976;2023-08-07T00:41:23;87362.03;;;4.99;66.13
81151;BME280;70629;-26.026;27.976;2023-08-07T00:42:58;87360.47;;;5.38;65.07
81151;BME280;70629;-26.026;27.976;2023-08-07T00:44:32;87362.09;;;5.75;62.59
81151;BME280;70629;-26.026;27.976;2023-08-07T00:46:07;87364.25;;;5.52;63.81
81151;BME280;70629;-26.026;27.976;2023-08-07T00:47:42;87353.47;;;5.25;65.07
81151;BME280;70629;-26.026;27.976;2023-08-07T00:49:19;87357.81;;;5.38;64.94
81151;BME280;70629;-26.026;27.976;2023-08-07T00:50:55;87356.66;;;5.48;64.42
81151;BME280;70629;-26.026;27.976;2023-08-07T00:52:32;87354.47;;;5.12;64.58
81151;BME280;70629;-26.026;27.976;2023-08-07T00:54:10;87355.53;;;5.09;65.37
81151;BME280;70629;-26.026;27.976;2023-08-07T00:55:46;87356.06;;;5.32;64.42
81151;BME280;70629;-26.026;27.976;2023-08-07T00:57:22;87357.25;;;5.64;64.22
81151;BME280;70629;-26.026;27.976;2023-08-07T00:58:59;87355.81;;;5.63;63.97
81151;BME280;70629;-26.026;27.976;2023-08-07T01:00:34;87356.13;;;5.50;64.10
81151;BME280;70629;-26.026;27.976;2023-08-07T01:02:10;87353.59;;;5.52;63.56
81151;BME280;70629;-26.026;27.976;2023-08-07T01:04:05;87354.50;;;5.29;64.18
81151;BME280;70629;-26.026;27.976;2023-08-07T01:05:40;87348.75;;;5.16;65.14
81151;BME280;70629;-26.026;27.976;2023-08-07T01:07:14;87357.28;;;5.14;64.17
81151;BME280;70629;-26.026;27.976;2023-08-07T01:08:49;87351.22;;;5.14;65.30
81151;BME280;70629;-26.026;27.976;2023-08-07T01:12:30;87351.53;;;5.43;64.90
81151;BME280;70629;-26.026;27.976;2023-08-07T01:14:35;87353.59;;;5.52;64.14
81151;BME280;70629;-26.026;27.976;2023-08-07T01:16:20;87356.91;;;5.60;63.42
81151;BME280;70629;-26.026;27.976;2023-08-07T01:17:56;87357.94;;;5.22;65.15
81151;BME280;70629;-26.026;27.976;2023-08-07T01:19:34;87357.19;;;4.80;65.92
81151;BME280;70629;-26.026;27.976;2023-08-07T01:21:18;87362.25;;;5.18;65.16
81151;BME280;70629;-26.026;27.976;2023-08-07T01:22:53;87361.84;;;5.21;64.93
81151;BME280;70629;-26.026;27.976;2023-08-07T01:24:27;87355.44;;;5.24;65.10
81151;BME280;70629;-26.026;27.976;2023-08-07T01:26:02;87352.16;;;5.34;64.80
81151;BME280;70629;-26.026;27.976;2023-08-07T01:29:26;87359.78;;;5.12;64.55
81151;BME280;70629;-26.026;27.976;2023-08-07T01:31:08;87361.38;;;4.58;67.01
81151;BME280;70629;-26.026;27.976;2023-08-07T01:34:58;87353.25;;;4.81;65.62
81151;BME280;70629;-26.026;27.976;2023-08-07T01:36:34;87354.97;;;4.61;66.56
81151;BME280;70629;-26.026;27.976;2023-08-07T01:38:11;87357.97;;;4.65;65.98
81151;BME280;70629;-26.026;27.976;2023-08-07T01:39:50;87360.50;;;4.56;66.14
81151;BME280;70629;-26.026;27.976;2023-08-07T01:41:26;87353.34;;;4.66;66.76
81151;BME280;70629;-26.026;27.976;2023-08-07T01:43:01;87357.16;;;4.48;66.75
81151;BME280;70629;-26.026;27.976;2023-08-07T01:44:37;87353.00;;;4.62;66.75
81151;BME280;70629;-26.026;27.976;2023-08-07T01:46:12;87355.31;;;4.65;66.79
81151;BME280;70629;-26.026;27.976;2023-08-07T01:47:47;87359.50;;;4.43;66.88
81151;BME280;70629;-26.026;27.976;2023-08-07T01:49:23;87356.81;;;4.51;66.86
81151;BME280;70629;-26.026;27.976;2023-08-07T01:50:58;87355.50;;;4.60;66.63
81151;BME280;70629;-26.026;27.976;2023-08-07T01:52:33;87359.28;;;4.49;66.32
81151;BME280;70629;-26.026;27.976;2023-08-07T01:54:08;87357.19;;;4.72;65.90
81151;BME280;70629;-26.026;27.976;2023-08-07T01:55:43;87361.13;;;4.96;64.45
81151;BME280;70629;-26.026;27.976;2023-08-07T01:57:17;87362.03;;;4.66;66.01
81151;BME280;70629;-26.026;27.976;2023-08-07T01:58:52;87362.88;;;4.44;67.18
81151;BME280;70629;-26.026;27.976;2023-08-07T02:00:27;87369.19;;;4.89;65.19
81151;BME280;70629;-26.026;27.976;2023-08-07T02:02:02;87364.91;;;4.93;65.38
81151;BME280;70629;-26.026;27.976;2023-08-07T02:03:37;87356.41;;;4.87;65.15
81151;BME280;70629;-26.026;27.976;2023-08-07T02:05:12;87366.88;;;4.20;67.13
81151;BME280;70629;-26.026;27.976;2023-08-07T02:06:47;87355.75;;;4.79;65.51
81151;BME280;70629;-26.026;27.976;2023-08-07T02:08:22;87357.00;;;4.78;65.44
81151;BME280;70629;-26.026;27.976;2023-08-07T02:09:58;87359.38;;;4.66;65.93
81151;BME280;70629;-26.026;27.976;2023-08-07T02:11:32;87356.94;;;4.61;65.71
81151;BME280;70629;-26.026;27.976;2023-08-07T02:13:07;87355.19;;;4.56;66.08
81151;BME280;70629;-26.026;27.976;2023-08-07T02:14:42;87359.09;;;4.55;65.25
81151;BME280;70629;-26.026;27.976;2023-08-07T02:16:17;87356.00;;;4.66;65.76
81151;BME280;70629;-26.026;27.976;2023-08-07T02:17:51;87357.13;;;4.88;64.37
81151;BME280;70629;-26.026;27.976;2023-08-07T02:19:26;87350.19;;;4.60;65.71
81151;BME280;70629;-26.026;27.976;2023-08-07T02:21:01;87356.00;;;4.66;64.97
81151;BME280;70629;-26.026;27.976;2023-08-07T02:22:36;87348.94;;;4.61;64.93
81151;BME280;70629;-26.026;27.976;2023-08-07T02:24:10;87352.66;;;4.65;64.88
81151;BME280;70629;-26.026;27.976;2023-08-07T02:25:45;87356.22;;;4.85;63.81
81151;BME280;70629;-26.026;27.976;2023-08-07T02:27:20;87356.94;;;4.85;63.90
81151;BME280;70629;-26.026;27.976;2023-08-07T02:28:55;87357.50;;;4.84;65.51
81151;BME280;70629;-26.026;27.976;2023-08-07T02:30:30;87361.50;;;4.35;66.69
81151;BME280;70629;-26.026;27.976;2023-08-07T02:32:06;87359.16;;;4.72;65.38
81151;BME280;70629;-26.026;27.976;2023-08-07T02:33:41;87360.63;;;4.33;66.63
81151;BME280;70629;-26.026;27.976;2023-08-07T02:35:16;87363.66;;;4.62;65.45
81151;BME280;70629;-26.026;27.976;2023-08-07T02:36:50;87358.88;;;4.20;66.80
81151;BME280;70629;-26.026;27.976;2023-08-07T02:38:25;87360.19;;;4.44;66.34
81151;BME280;70629;-26.026;27.976;2023-08-07T02:40:00;87359.50;;;4.43;66.84
81151;BME280;70629;-26.026;27.976;2023-08-07T02:41:35;87364.75;;;4.59;65.91
81151;BME280;70629;-26.026;27.976;2023-08-07T02:43:09;87364.09;;;4.51;65.16
81151;BME280;70629;-26.026;27.976;2023-08-07T02:44:44;87361.41;;;4.18;67.51
81151;BME280;70629;-26.026;27.976;2023-08-07T02:46:19;87368.81;;;4.20;67.49
81151;BME280;70629;-26.026;27.976;2023-08-07T02:47:54;87368.16;;;4.12;67.87
81151;BME280;70629;-26.026;27.976;2023-08-07T02:49:29;87365.59;;;3.81;68.66
81151;BME280;70629;-26.026;27.976;2023-08-07T02:51:04;87369.03;;;4.14;67.94
81151;BME280;70629;-26.026;27.976;2023-08-07T02:52:39;87364.66;;;4.41;67.12
81151;BME280;70629;-26.026;27.976;2023-08-07T02:54:17;87366.09;;;4.35;66.49
81151;BME280;70629;-26.026;27.976;2023-08-07T02:55:52;87365.69;;;4.14;67.15
81151;BME280;70629;-26.026;27.976;2023-08-07T02:57:27;87365.25;;;4.32;66.15
81151;BME280;70629;-26.026;27.976;2023-08-07T02:59:01;87367.06;;;4.15;67.13
81151;BME280;70629;-26.026;27.976;2023-08-07T03:00:36;87366.72;;;4.11;66.97
81151;BME280;70629;-26.026;27.976;2023-08-07T03:02:10;87355.38;;;4.10;67.06
81151;BME280;70629;-26.026;27.976;2023-08-07T03:03:45;87365.59;;;4.29;66.16
81151;BME280;70629;-26.026;27.976;2023-08-07T03:05:20;87366.66;;;3.78;66.52
81151;BME280;70629;-26.026;27.976;2023-08-07T03:06:54;87371.41;;;3.95;66.87
81151;BME280;70629;-26.026;27.976;2023-08-07T03:08:30;87373.53;;;3.96;67.43
81151;BME280;70629;-26.026;27.976;2023-08-07T03:10:05;87376.03;;;4.34;65.87
81151;BME280;70629;-26.026;27.976;2023-08-07T03:11:40;87360.13;;;3.72;67.03
81151;BME280;70629;-26.026;27.976;2023-08-07T03:13:15;87376.56;;;3.93;67.08
81151;BME280;70629;-26.026;27.976;2023-08-07T03:14:49;87373.41;;;3.79;66.99
81151;BME280;70629;-26.026;27.976;2023-08-07T03:16:24;87373.00;;;3.98;66.69
81151;BME280;70629;-26.026;27.976;2023-08-07T03:17:58;87361.38;;;3.71;68.63
81151;BME280;70629;-26.026;27.976;2023-08-07T03:19:33;87369.34;;;3.71;66.88
81151;BME280;70629;-26.026;27.976;2023-08-07T03:21:08;87373.94;;;3.78;67.54
81151;BME280;70629;-26.026;27.976;2023-08-07T03:22:43;87377.06;;;3.99;67.23
81151;BME280;70629;-26.026;27.976;2023-08-07T03:24:17;87379.81;;;4.24;66.27
81151;BME280;70629;-26.026;27.976;2023-08-07T03:26:10;87379.19;;;4.08;66.74
81151;BME280;70629;-26.026;27.976;2023-08-07T03:27:47;87379.97;;;3.86;66.84
81151;BME280;70629;-26.026;27.976;2023-08-07T03:29:22;87381.81;;;4.16;66.04
81151;BME280;70629;-26.026;27.976;2023-08-07T03:30:57;87380.06;;;4.03;67.06
81151;BME280;70629;-26.026;27.976;2023-08-07T03:32:32;87382.78;;;4.35;65.45
81151;BME280;70629;-26.026;27.976;2023-08-07T03:34:07;87384.44;;;4.23;65.85
81151;BME280;70629;-26.026;27.976;2023-08-07T03:35:42;87388.50;;;4.24;65.40
81151;BME280;70629;-26.026;27.976;2023-08-07T03:37:17;87391.25;;;4.09;66.04
81151;BME280;70629;-26.026;27.976;2023-08-07T03:38:52;87383.53;;;4.28;65.21
81151;BME280;70629;-26.026;27.976;2023-08-07T03:40:26;87389.97;;;4.10;65.92
81151;BME280;70629;-26.026;27.976;2023-08-07T03:42:01;87385.84;;;3.69;67.58
81151;BME280;70629;-26.026;27.976;2023-08-07T03:43:36;87387.94;;;3.86;67.20
81151;BME280;70629;-26.026;27.976;2023-08-07T03:45:10;87391.25;;;4.09;66.05
81151;BME280;70629;-26.026;27.976;2023-08-07T03:46:45;87394.41;;;4.15;66.13
81151;BME280;70629;-26.026;27.976;2023-08-07T03:48:20;87388.59;;;4.09;66.04
81151;BME280;70629;-26.026;27.976;2023-08-07T03:49:55;87390.53;;;4.09;66.13
81151;BME280;70629;-26.026;27.976;2023-08-07T03:51:30;87389.06;;;4.15;66.31
81151;BME280;70629;-26.026;27.976;2023-08-07T03:53:06;87393.06;;;3.84;66.88
81151;BME280;70629;-26.026;27.976;2023-08-07T03:54:41;87386.16;;;3.88;67.06
81151;BME280;70629;-26.026;27.976;2023-08-07T03:56:16;87392.16;;;3.96;66.46
81151;BME280;70629;-26.026;27.976;2023-08-07T03:57:51;87393.97;;;3.79;67.58
81151;BME280;70629;-26.026;27.976;2023-08-07T03:59:25;87387.81;;;3.53;67.42
81151;BME280;70629;-26.026;27.976;2023-08-07T04:01:00;87396.25;;;3.90;65.96
81151;BME280;70629;-26.026;27.976;2023-08-07T04:02:35;87396.50;;;3.62;66.82
81151;BME280;70629;-26.026;27.976;2023-08-07T04:04:10;87392.94;;;3.59;67.67
81151;BME280;70629;-26.026;27.976;2023-08-07T04:05:44;87397.91;;;3.63;67.73
81151;BME280;70629;-26.026;27.976;2023-08-07T04:07:19;87396.25;;;3.90;66.81
81151;BME280;70629;-26.026;27.976;2023-08-07T04:08:54;87405.16;;;3.85;66.83
81151;BME280;70629;-26.026;27.976;2023-08-07T04:10:28;87409.41;;;3.80;67.35
81151;BME280;70629;-26.026;27.976;2023-08-07T04:12:04;87405.19;;;3.62;66.75
81151;BME280;70629;-26.026;27.976;2023-08-07T04:13:39;87405.19;;;3.54;68.32
81151;BME280;70629;-26.026;27.976;2023-08-07T04:15:14;87409.78;;;3.69;67.26
81151;BME280;70629;-26.026;27.976;2023-08-07T04:16:49;87402.72;;;3.11;68.68
81151;BME280;70629;-26.026;27.976;2023-08-07T04:18:24;87402.00;;;3.48;67.94
81151;BME280;70629;-26.026;27.976;2023-08-07T04:19:59;87400.59;;;3.32;68.16
81151;BME280;70629;-26.026;27.976;2023-08-07T04:21:34;87408.03;;;3.49;68.36
81151;BME280;70629;-26.026;27.976;2023-08-07T04:23:09;87413.50;;;3.59;67.53
81151;BME280;70629;-26.026;27.976;2023-08-07T04:24:43;87414.03;;;3.80;66.73
81151;BME280;70629;-26.026;27.976;2023-08-07T04:26:19;87418.22;;;3.98;65.58
81151;BME280;70629;-26.026;27.976;2023-08-07T04:27:53;87411.16;;;3.78;66.36
81151;BME280;70629;-26.026;27.976;2023-08-07T04:29:29;87412.00;;;3.95;65.79
81151;BME280;70629;-26.026;27.976;2023-08-07T04:31:03;87413.16;;;3.54;67.16
81151;BME280;70629;-26.026;27.976;2023-08-07T04:32:38;87416.38;;;3.53;67.21
81151;BME280;70629;-26.026;27.976;2023-08-07T04:34:12;87411.53;;;3.82;66.86
81151;BME280;70629;-26.026;27.976;2023-08-07T04:35:48;87423.59;;;3.90;65.76
81151;BME280;70629;-26.026;27.976;2023-08-07T04:37:22;87421.81;;;3.78;66.32
81151;BME280;70629;-26.026;27.976;2023-08-07T04:38:58;87414.38;;;3.76;65.69
81151;BME280;70629;-26.026;27.976;2023-08-07T04:40:32;87428.69;;;3.96;65.47
81151;BME280;70629;-26.026;27.976;2023-08-07T04:42:07;87415.81;;;3.54;66.58
81151;BME280;70629;-26.026;27.976;2023-08-07T04:43:42;87416.34;;;3.61;66.39
81151;BME280;70629;-26.026;27.976;2023-08-07T04:45:20;87418.31;;;3.52;66.78
81151;BME280;70629;-26.026;27.976;2023-08-07T04:46:55;87428.06;;;3.50;66.23
81151;BME280;70629;-26.026;27.976;2023-08-07T04:48:30;87417.59;;;3.52;66.85
81151;BME280;70629;-26.026;27.976;2023-08-07T04:50:05;87426.09;;;3.50;66.63
81151;BME280;70629;-26.026;27.976;2023-08-07T04:51:39;87425.94;;;3.41;67.99
81151;BME280;70629;-26.026;27.976;2023-08-07T04:53:14;87430.19;;;3.36;67.52
81151;BME280;70629;-26.026;27.976;2023-08-07T04:54:49;87428.22;;;3.60;67.30
81151;BME280;70629;-26.026;27.976;2023-08-07T04:56:24;87431.75;;;3.77;66.80
81151;BME280;70629;-26.026;27.976;2023-08-07T04:57:59;87437.28;;;3.34;68.13
81151;BME280;70629;-26.026;27.976;2023-08-07T04:59:34;87438.66;;;2.97;68.62
81151;BME280;70629;-26.026;27.976;2023-08-07T05:01:10;87440.09;;;3.21;68.63
81151;BME280;70629;-26.026;27.976;2023-08-07T05:02:44;87443.50;;;3.51;67.58
81151;BME280;70629;-26.026;27.976;2023-08-07T05:04:19;87443.47;;;3.36;68.05
81151;BME280;70629;-26.026;27.976;2023-08-07T05:05:59;87440.28;;;3.23;68.67
81151;BME280;70629;-26.026;27.976;2023-08-07T05:07:34;87439.06;;;3.62;67.23
81151;BME280;70629;-26.026;27.976;2023-08-07T05:09:09;87442.75;;;3.74;66.71
81151;BME280;70629;-26.026;27.976;2023-08-07T05:10:44;87445.25;;;3.41;68.38
81151;BME280;70629;-26.026;27.976;2023-08-07T05:12:19;87442.78;;;3.51;68.07
81151;BME280;70629;-26.026;27.976;2023-08-07T05:13:54;87447.72;;;3.39;67.94
81151;BME280;70629;-26.026;27.976;2023-08-07T05:15:29;87453.75;;;3.78;67.88
81151;BME280;70629;-26.026;27.976;2023-08-07T05:17:05;87447.84;;;4.02;66.43
81151;BME280;70629;-26.026;27.976;2023-08-07T05:18:39;87450.56;;;3.64;67.74
81151;BME280;70629;-26.026;27.976;2023-08-07T05:20:14;87455.34;;;3.35;68.59
81151;BME280;70629;-26.026;27.976;2023-08-07T05:21:49;87460.34;;;3.62;68.70
81151;BME280;70629;-26.026;27.976;2023-08-07T05:23:24;87445.72;;;4.01;67.50
81151;BME280;70629;-26.026;27.976;2023-08-07T05:24:59;87455.63;;;4.15;66.25
81151;BME280;70629;-26.026;27.976;2023-08-07T05:26:33;87457.94;;;4.19;66.96
81151;BME280;70629;-26.026;27.976;2023-08-07T05:28:08;87458.09;;;4.28;66.56
81151;BME280;70629;-26.026;27.976;2023-08-07T05:29:43;87458.69;;;4.59;64.59
81151;BME280;70629;-26.026;27.976;2023-08-07T05:31:18;87458.56;;;4.90;64.22
81151;BME280;70629;-26.026;27.976;2023-08-07T05:32:53;87454.59;;;4.98;63.17
81151;BME280;70629;-26.026;27.976;2023-08-07T05:34:29;87460.78;;;5.08;63.22
81151;BME280;70629;-26.026;27.976;2023-08-07T05:36:04;87457.53;;;5.17;63.42
81151;BME280;70629;-26.026;27.976;2023-08-07T05:37:40;87448.19;;;5.01;63.90
81151;BME280;70629;-26.026;27.976;2023-08-07T05:39:15;87453.25;;;5.14;63.65
81151;BME280;70629;-26.026;27.976;2023-08-07T05:40:50;87455.34;;;5.23;63.74
81151;BME280;70629;-26.026;27.976;2023-08-07T05:42:25;87450.44;;;5.12;63.82
81151;BME280;70629;-26.026;27.976;2023-08-07T05:43:59;87452.25;;;5.35;63.97
81151;BME280;70629;-26.026;27.976;2023-08-07T05:45:34;87450.22;;;5.43;63.19
81151;BME280;70629;-26.026;27.976;2023-08-07T05:47:09;87447.84;;;5.29;63.70
81151;BME280;70629;-26.026;27.976;2023-08-07T05:48:44;87453.13;;;5.37;63.05
81151;BME280;70629;-26.026;27.976;2023-08-07T05:50:19;87458.13;;;5.58;62.39
81151;BME280;70629;-26.026;27.976;2023-08-07T05:51:53;87455.56;;;5.67;63.20
81151;BME280;70629;-26.026;27.976;2023-08-07T05:53:29;87450.66;;;5.81;62.86
81151;BME280;70629;-26.026;27.976;2023-08-07T05:55:04;87450.97;;;5.85;61.19
81151;BME280;70629;-26.026;27.976;2023-08-07T05:56:41;87442.47;;;5.87;62.10
81151;BME280;70629;-26.026;27.976;2023-08-07T05:58:15;87451.06;;;6.02;60.74
81151;BME280;70629;-26.026;27.976;2023-08-07T05:59:50;87455.88;;;6.21;60.48
81151;BME280;70629;-26.026;27.976;2023-08-07T06:01:26;87453.72;;;6.20;60.92
81151;BME280;70629;-26.026;27.976;2023-08-07T06:03:05;87453.09;;;6.29;59.93
81151;BME280;70629;-26.026;27.976;2023-08-07T06:04:40;87450.13;;;6.42;59.88
81151;BME280;70629;-26.026;27.976;2023-08-07T06:06:15;87452.81;;;6.59;59.63
81151;BME280;70629;-26.026;27.976;2023-08-07T06:07:50;87451.25;;;6.83;60.82
81151;BME280;70629;-26.026;27.976;2023-08-07T06:09:25;87455.41;;;7.11;59.47
81151;BME280;70629;-26.026;27.976;2023-08-07T06:10:59;87449.72;;;7.06;58.58
81151;BME280;70629;-26.026;27.976;2023-08-07T06:12:37;87445.56;;;7.13;59.07
81151;BME280;70629;-26.026;27.976;2023-08-07T06:14:12;87444.72;;;7.11;57.77
81151;BME280;70629;-26.026;27.976;2023-08-07T06:15:49;87444.75;;;7.20;59.65
81151;BME280;70629;-26.026;27.976;2023-08-07T06:17:24;87446.44;;;7.25;58.75
81151;BME280;70629;-26.026;27.976;2023-08-07T06:18:59;87449.63;;;7.41;57.81
81151;BME280;70629;-26.026;27.976;2023-08-07T06:20:34;87446.00;;;7.46;58.54
81151;BME280;70629;-26.026;27.976;2023-08-07T06:22:09;87451.59;;;7.67;57.27
81151;BME280;70629;-26.026;27.976;2023-08-07T06:23:44;87449.66;;;7.87;56.24
81151;BME280;70629;-26.026;27.976;2023-08-07T06:25:19;87454.63;;;7.90;56.27
81151;BME280;70629;-26.026;27.976;2023-08-07T06:26:54;87447.72;;;7.97;56.68
81151;BME280;70629;-26.026;27.976;2023-08-07T06:28:29;87450.53;;;7.89;55.55
81151;BME280;70629;-26.026;27.976;2023-08-07T06:30:04;87452.56;;;8.08;54.80
81151;BME280;70629;-26.026;27.976;2023-08-07T06:31:40;87447.50;;;8.12;55.74
81151;BME280;70629;-26.026;27.976;2023-08-07T06:33:14;87454.69;;;8.10;56.67
81151;BME280;70629;-26.026;27.976;2023-08-07T06:34:49;87457.06;;;8.06;55.61
81151;BME280;70629;-26.026;27.976;2023-08-07T06:36:24;87454.00;;;8.19;54.69
81151;BME280;70629;-26.026;27.976;2023-08-07T06:37:59;87463.16;;;8.25;54.88
81151;BME280;70629;-26.026;27.976;2023-08-07T06:39:34;87467.56;;;8.30;55.74
81151;BME280;70629;-26.026;27.976;2023-08-07T06:41:09;87462.75;;;8.29;58.53
81151;BME280;70629;-26.026;27.976;2023-08-07T06:42:44;87458.84;;;8.40;56.05
81151;BME280;70629;-26.026;27.976;2023-08-07T06:44:18;87453.66;;;8.51;57.25
81151;BME280;70629;-26.026;27.976;2023-08-07T06:45:54;87464.78;;;8.67;53.59
81151;BME280;70629;-26.026;27.976;2023-08-07T06:47:29;87466.06;;;9.04;51.52
81151;BME280;70629;-26.026;27.976;2023-08-07T06:49:04;87460.56;;;9.02;51.61
81151;BME280;70629;-26.026;27.976;2023-08-07T06:50:39;87469.34;;;8.93;54.72
81151;BME280;70629;-26.026;27.976;2023-08-07T06:52:14;87462.28;;;9.07;51.91
81151;BME280;70629;-26.026;27.976;2023-08-07T06:53:49;87462.34;;;9.38;51.09
81151;BME280;70629;-26.026;27.976;2023-08-07T06:55:23;87463.78;;;9.39;51.69
81151;BME280;70629;-26.026;27.976;2023-08-07T06:56:58;87462.72;;;9.63;49.28
81151;BME280;70629;-26.026;27.976;2023-08-07T06:58:33;87455.28;;;9.93;46.88
81151;BME280;70629;-26.026;27.976;2023-08-07T07:00:08;87452.31;;;9.89;47.32
81151;BME280;70629;-26.026;27.976;2023-08-07T07:01:45;87455.00;;;9.89;47.47
81151;BME280;70629;-26.026;27.976;2023-08-07T07:03:19;87470.28;;;9.86;48.21
81151;BME280;70629;-26.026;27.976;2023-08-07T07:04:54;87461.25;;;10.22;45.32
81151;BME280;70629;-26.026;27.976;2023-08-07T07:06:30;87468.00;;;10.33;44.82
81151;BME280;70629;-26.026;27.976;2023-08-07T07:08:04;87465.41;;;10.44;44.31
81151;BME280;70629;-26.026;27.976;2023-08-07T07:09:39;87470.00;;;10.53;45.13
81151;BME280;70629;-26.026;27.976;2023-08-07T07:11:14;87464.84;;;10.67;44.25
81151;BME280;70629;-26.026;27.976;2023-08-07T07:12:49;87460.66;;;10.76;44.50
81151;BME280;70629;-26.026;27.976;2023-08-07T07:14:24;87467.06;;;10.92;42.88
81151;BME280;70629;-26.026;27.976;2023-08-07T07:15:59;87465.28;;;11.06;44.08
81151;BME280;70629;-26.026;27.976;2023-08-07T07:17:34;87457.47;;;11.22;43.23
81151;BME280;70629;-26.026;27.976;2023-08-07T07:19:08;87455.47;;;11.43;43.58
81151;BME280;70629;-26.026;27.976;2023-08-07T07:20:43;87453.97;;;11.52;43.30
81151;BME280;70629;-26.026;27.976;2023-08-07T07:22:18;87459.13;;;11.60;41.84
81151;BME280;70629;-26.026;27.976;2023-08-07T07:23:53;87450.38;;;11.71;41.46
81151;BME280;70629;-26.026;27.976;2023-08-07T07:25:27;87450.53;;;11.84;40.98
81151;BME280;70629;-26.026;27.976;2023-08-07T07:27:02;87447.50;;;12.02;40.35
81151;BME280;70629;-26.026;27.976;2023-08-07T07:28:37;87447.50;;;12.13;40.97
81151;BME280;70629;-26.026;27.976;2023-08-07T07:30:12;87450.34;;;12.27;40.05
81151;BME280;70629;-26.026;27.976;2023-08-07T07:31:47;87448.19;;;12.49;39.59
81151;BME280;70629;-26.026;27.976;2023-08-07T07:33:23;87457.00;;;12.61;39.70
81151;BME280;70629;-26.026;27.976;2023-08-07T07:34:58;87456.03;;;12.68;37.60
81151;BME280;70629;-26.026;27.976;2023-08-07T07:36:33;87458.47;;;12.87;37.72
81151;BME280;70629;-26.026;27.976;2023-08-07T07:38:08;87455.16;;;13.12;36.45
81151;BME280;70629;-26.026;27.976;2023-08-07T07:39:44;87458.88;;;13.18;35.61
81151;BME280;70629;-26.026;27.976;2023-08-07T07:41:19;87458.97;;;13.32;34.67
81151;BME280;70629;-26.026;27.976;2023-08-07T07:42:54;87457.19;;;13.62;35.52
81151;BME280;70629;-26.026;27.976;2023-08-07T07:44:29;87462.81;;;13.91;33.98
81151;BME280;70629;-26.026;27.976;2023-08-07T07:46:04;87460.88;;;13.80;33.89
81151;BME280;70629;-26.026;27.976;2023-08-07T07:47:39;87461.19;;;13.86;32.75
81151;BME280;70629;-26.026;27.976;2023-08-07T07:49:15;87459.66;;;14.08;33.36
81151;BME280;70629;-26.026;27.976;2023-08-07T07:50:50;87453.59;;;14.22;32.11
81151;BME280;70629;-26.026;27.976;2023-08-07T07:52:27;87456.75;;;14.57;31.96
81151;BME280;70629;-26.026;27.976;2023-08-07T07:54:02;87455.25;;;14.95;30.82
81151;BME280;70629;-26.026;27.976;2023-08-07T07:55:47;87439.66;;;15.23;30.31
81151;BME280;70629;-26.026;27.976;2023-08-07T07:57:22;87446.09;;;15.16;32.47
81151;BME280;70629;-26.026;27.976;2023-08-07T07:58:57;87440.56;;;15.14;30.24
81151;BME280;70629;-26.026;27.976;2023-08-07T08:00:32;87436.66;;;15.17;30.67
81151;BME280;70629;-26.026;27.976;2023-08-07T08:02:07;87444.19;;;15.61;31.23
81151;BME280;70629;-26.026;27.976;2023-08-07T08:03:42;87440.91;;;15.63;29.98
81151;BME280;70629;-26.026;27.976;2023-08-07T08:05:18;87436.25;;;15.95;28.77
81151;BME280;70629;-26.026;27.976;2023-08-07T08:06:52;87439.03;;;15.97;30.02
81151;BME280;70629;-26.026;27.976;2023-08-07T08:08:28;87442.72;;;16.03;30.41
81151;BME280;70629;-26.026;27.976;2023-08-07T08:10:03;87428.22;;;16.28;27.35
81151;BME280;70629;-26.026;27.976;2023-08-07T08:11:38;87431.53;;;16.11;29.02
81151;BME280;70629;-26.026;27.976;2023-08-07T08:13:15;87429.28;;;16.52;26.23
81151;BME280;70629;-26.026;27.976;2023-08-07T08:14:50;87430.00;;;16.68;25.81
81151;BME280;70629;-26.026;27.976;2023-08-07T08:16:29;87423.66;;;16.48;22.93
81151;BME280;70629;-26.026;27.976;2023-08-07T08:18:04;87431.72;;;16.78;23.19
81151;BME280;70629;-26.026;27.976;2023-08-07T08:19:39;87427.56;;;17.08;21.51
81151;BME280;70629;-26.026;27.976;2023-08-07T08:21:23;87411.28;;;17.08;21.14
81151;BME280;70629;-26.026;27.976;2023-08-07T08:22:59;87419.84;;;17.18;22.88